DLH1797 LEPA-EDDM
Flight info
| Callsign | DLH1797 |
|---|---|
| Flight time | 1h 57m |
| Altitude | 32000 |
| Route | MEROS DCT LAPIT DCT CHELY DCT LUMAS/N0433F340 DCT UNANA/N0426F300 DCT STP/N0438F360 DCT RAPED DCT PIGOS DCT EKSID DCT NOSTA DCT NOPMU DCT VAKON DCT TAGIP DCT GUNGO DCT TISAX DCT IVKAL T102 NINUR T101 BETOS BETOS1B |
| Aircraft | A321/M-SDE2E3FGIJ1LORWXYZ/HB1 |
Departure
| Time | 2026-05-07 12:29 |
|---|---|
| Airport | Palma de Mallorca Airport (LEPA) |
Arrival
| Time | 2026-05-07 14:26 |
|---|---|
| Airport | Munich Airport (EDDM) |
| Time | Latitude | Longitude | Altitude | Speed | Heading |
|---|---|---|---|---|---|
| 2026-05-07 11:48 | 39.55070 | 2.73578 | 39 ft | 0 kts | 164° |
| 2026-05-07 12:16 | 39.55087 | 2.73573 | 60 ft | 4 kts | 173° |
| 2026-05-07 12:16 | 39.55110 | 2.73568 | 31 ft | 3 kts | 163° |
| 2026-05-07 12:17 | 39.55132 | 2.73554 | 37 ft | 4 kts | 129° |
| 2026-05-07 12:17 | 39.55140 | 2.73526 | 37 ft | 4 kts | 81° |
| 2026-05-07 12:17 | 39.55132 | 2.73495 | 38 ft | 3 kts | 59° |
| 2026-05-07 12:17 | 39.55118 | 2.73466 | 36 ft | 4 kts | 59° |
| 2026-05-07 12:18 | 39.55114 | 2.73457 | 37 ft | 0 kts | 59° |
| 2026-05-07 12:22 | 39.55116 | 2.73462 | 37 ft | 2 kts | 59° |
| 2026-05-07 12:22 | 39.55128 | 2.73489 | 38 ft | 5 kts | 59° |
| 2026-05-07 12:22 | 39.55161 | 2.73559 | 38 ft | 11 kts | 59° |
| 2026-05-07 12:23 | 39.55169 | 2.73639 | 38 ft | 9 kts | 110° |
| 2026-05-07 12:23 | 39.55178 | 2.73715 | 38 ft | 9 kts | 96° |
| 2026-05-07 12:23 | 39.55137 | 2.73775 | 38 ft | 10 kts | 148° |
| 2026-05-07 12:23 | 39.55076 | 2.73822 | 38 ft | 12 kts | 148° |
| 2026-05-07 12:24 | 39.55000 | 2.73881 | 38 ft | 14 kts | 149° |
| 2026-05-07 12:24 | 39.54913 | 2.73949 | 38 ft | 16 kts | 149° |
| 2026-05-07 12:24 | 39.54820 | 2.73985 | 38 ft | 15 kts | 213° |
| 2026-05-07 12:24 | 39.54735 | 2.73959 | 38 ft | 14 kts | 165° |
| 2026-05-07 12:25 | 39.54669 | 2.73876 | 38 ft | 15 kts | 239° |
| 2026-05-07 12:25 | 39.54606 | 2.73741 | 38 ft | 19 kts | 238° |
| 2026-05-07 12:25 | 39.54533 | 2.73587 | 38 ft | 20 kts | 238° |
| 2026-05-07 12:25 | 39.54458 | 2.73428 | 38 ft | 21 kts | 238° |
| 2026-05-07 12:26 | 39.54383 | 2.73269 | 38 ft | 19 kts | 238° |
| 2026-05-07 12:26 | 39.54316 | 2.73128 | 38 ft | 16 kts | 238° |
| 2026-05-07 12:26 | 39.54264 | 2.73049 | 38 ft | 11 kts | 199° |
| 2026-05-07 12:26 | 39.54238 | 2.73055 | 38 ft | 0 kts | 150° |
| 2026-05-07 12:27 | 39.54232 | 2.73059 | 38 ft | 2 kts | 149° |
| 2026-05-07 12:27 | 39.54217 | 2.73083 | 38 ft | 6 kts | 121° |
| 2026-05-07 12:27 | 39.54212 | 2.73163 | 38 ft | 10 kts | 90° |
| 2026-05-07 12:27 | 39.54212 | 2.73260 | 38 ft | 11 kts | 90° |
| 2026-05-07 12:28 | 39.54220 | 2.73364 | 38 ft | 12 kts | 68° |
| 2026-05-07 12:28 | 39.54264 | 2.73462 | 38 ft | 13 kts | 58° |
| 2026-05-07 12:28 | 39.54313 | 2.73565 | 38 ft | 14 kts | 58° |
| 2026-05-07 12:28 | 39.54386 | 2.73720 | 38 ft | 40 kts | 59° |
| 2026-05-07 12:29 | 39.54661 | 2.74301 | 38 ft | 109 kts | 58° |
| 2026-05-07 12:29 | 39.55162 | 2.75359 | 48 ft | 162 kts | 60° |
| 2026-05-07 12:29 | 39.55762 | 2.76606 | 661 ft | 162 kts | 61° |
| 2026-05-07 12:29 | 39.56293 | 2.77895 | 1413 ft | 161 kts | 65° |
| 2026-05-07 12:30 | 39.56740 | 2.79181 | 2074 ft | 157 kts | 68° |
| 2026-05-07 12:30 | 39.57257 | 2.80470 | 2564 ft | 166 kts | 61° |
| 2026-05-07 12:30 | 39.57865 | 2.81777 | 3068 ft | 172 kts | 60° |
| 2026-05-07 12:30 | 39.58547 | 2.83083 | 3577 ft | 177 kts | 57° |
| 2026-05-07 12:31 | 39.59298 | 2.84380 | 4120 ft | 183 kts | 54° |
| 2026-05-07 12:31 | 39.60119 | 2.85703 | 4605 ft | 192 kts | 53° |
| 2026-05-07 12:31 | 39.60965 | 2.87092 | 5146 ft | 195 kts | 56° |
| 2026-05-07 12:31 | 39.61698 | 2.88634 | 5506 ft | 209 kts | 63° |
| 2026-05-07 12:32 | 39.62368 | 2.90335 | 5880 ft | 219 kts | 65° |
| 2026-05-07 12:32 | 39.63068 | 2.92185 | 6098 ft | 241 kts | 65° |
| 2026-05-07 12:32 | 39.63847 | 2.94226 | 6394 ft | 262 kts | 64° |
| 2026-05-07 12:32 | 39.64694 | 2.96362 | 6954 ft | 270 kts | 63° |
| 2026-05-07 12:33 | 39.66519 | 3.00741 | 8294 ft | 278 kts | 62° |
| 2026-05-07 12:33 | 39.67467 | 3.02951 | 8979 ft | 282 kts | 62° |
| 2026-05-07 12:33 | 39.68433 | 3.05191 | 9653 ft | 286 kts | 62° |
| 2026-05-07 12:34 | 39.69405 | 3.07437 | 10187 ft | 296 kts | 62° |
| 2026-05-07 12:34 | 39.70448 | 3.09853 | 10322 ft | 318 kts | 62° |
| 2026-05-07 12:34 | 39.71563 | 3.12440 | 10519 ft | 336 kts | 62° |
| 2026-05-07 12:34 | 39.72718 | 3.15118 | 11003 ft | 343 kts | 62° |
| 2026-05-07 12:35 | 39.73895 | 3.17844 | 11552 ft | 348 kts | 63° |
| 2026-05-07 12:35 | 39.75086 | 3.20606 | 12117 ft | 353 kts | 63° |
| 2026-05-07 12:35 | 39.76290 | 3.23404 | 12688 ft | 357 kts | 63° |
| 2026-05-07 12:35 | 39.77569 | 3.26194 | 13257 ft | 362 kts | 56° |
| 2026-05-07 12:36 | 39.79183 | 3.28739 | 13816 ft | 367 kts | 50° |
| 2026-05-07 12:36 | 39.80873 | 3.31252 | 14344 ft | 371 kts | 50° |
| 2026-05-07 12:36 | 39.82575 | 3.33791 | 14862 ft | 374 kts | 50° |
| 2026-05-07 12:36 | 39.84289 | 3.36355 | 15392 ft | 377 kts | 50° |
| 2026-05-07 12:37 | 39.86018 | 3.38949 | 15903 ft | 381 kts | 50° |
| 2026-05-07 12:37 | 39.87759 | 3.41572 | 16411 ft | 385 kts | 50° |
| 2026-05-07 12:37 | 39.89516 | 3.44224 | 16912 ft | 388 kts | 50° |
| 2026-05-07 12:37 | 39.91289 | 3.46898 | 17411 ft | 392 kts | 50° |
| 2026-05-07 12:38 | 39.93077 | 3.49597 | 17907 ft | 395 kts | 50° |
| 2026-05-07 12:38 | 39.94881 | 3.52324 | 18365 ft | 399 kts | 50° |
| 2026-05-07 12:38 | 39.96703 | 3.55073 | 18773 ft | 403 kts | 50° |
| 2026-05-07 12:38 | 39.98543 | 3.57850 | 19178 ft | 407 kts | 50° |
| 2026-05-07 12:39 | 40.00401 | 3.60655 | 19591 ft | 411 kts | 50° |
| 2026-05-07 12:39 | 40.02275 | 3.63488 | 19967 ft | 414 kts | 50° |
| 2026-05-07 12:39 | 40.04165 | 3.66353 | 20356 ft | 418 kts | 49° |
| 2026-05-07 12:39 | 40.06069 | 3.69244 | 20739 ft | 422 kts | 49° |
| 2026-05-07 12:40 | 40.07990 | 3.72166 | 21106 ft | 426 kts | 49° |
| 2026-05-07 12:40 | 40.09925 | 3.75113 | 21473 ft | 430 kts | 49° |
| 2026-05-07 12:40 | 40.11218 | 3.77081 | 21720 ft | 432 kts | 49° |
| 2026-05-07 12:40 | 40.13186 | 3.80071 | 22087 ft | 436 kts | 49° |
| 2026-05-07 12:41 | 40.15171 | 3.83092 | 22440 ft | 440 kts | 49° |
| 2026-05-07 12:41 | 40.17169 | 3.86138 | 22802 ft | 443 kts | 49° |
| 2026-05-07 12:41 | 40.19182 | 3.89212 | 23147 ft | 447 kts | 48° |
| 2026-05-07 12:41 | 40.21212 | 3.92313 | 23498 ft | 450 kts | 48° |
| 2026-05-07 12:42 | 40.23256 | 3.95437 | 23800 ft | 454 kts | 48° |
| 2026-05-07 12:42 | 40.25313 | 3.98588 | 24102 ft | 457 kts | 48° |
| 2026-05-07 12:42 | 40.27382 | 4.01764 | 24399 ft | 460 kts | 49° |
| 2026-05-07 12:42 | 40.29465 | 4.04958 | 24707 ft | 463 kts | 49° |
| 2026-05-07 12:43 | 40.31561 | 4.08175 | 25006 ft | 466 kts | 49° |
| 2026-05-07 12:43 | 40.33671 | 4.11418 | 25302 ft | 469 kts | 49° |
| 2026-05-07 12:43 | 40.35792 | 4.14680 | 25604 ft | 472 kts | 49° |
| 2026-05-07 12:43 | 40.37922 | 4.17965 | 25890 ft | 475 kts | 49° |
| 2026-05-07 12:44 | 40.40065 | 4.21275 | 26181 ft | 477 kts | 49° |
| 2026-05-07 12:44 | 40.42220 | 4.24606 | 26463 ft | 480 kts | 49° |
| 2026-05-07 12:44 | 40.44390 | 4.27959 | 26754 ft | 483 kts | 49° |
| 2026-05-07 12:44 | 40.46679 | 4.31198 | 27025 ft | 485 kts | 41° |
| 2026-05-07 12:45 | 40.49314 | 4.33956 | 27300 ft | 485 kts | 31° |
| 2026-05-07 12:45 | 40.52230 | 4.36150 | 27561 ft | 483 kts | 21° |
| 2026-05-07 12:45 | 40.55352 | 4.37748 | 27834 ft | 480 kts | 12° |
| 2026-05-07 12:45 | 40.58597 | 4.38718 | 28094 ft | 478 kts | 4° |
| 2026-05-07 12:46 | 40.61881 | 4.39491 | 28380 ft | 480 kts | 4° |
| 2026-05-07 12:46 | 40.65177 | 4.40269 | 28654 ft | 483 kts | 4° |
| 2026-05-07 12:46 | 40.68495 | 4.41058 | 28932 ft | 486 kts | 4° |
| 2026-05-07 12:46 | 40.71831 | 4.41857 | 29198 ft | 488 kts | 4° |
| 2026-05-07 12:47 | 40.75181 | 4.42664 | 29468 ft | 491 kts | 4° |
| 2026-05-07 12:47 | 40.78548 | 4.43478 | 29731 ft | 493 kts | 4° |
| 2026-05-07 12:47 | 40.81933 | 4.44299 | 29992 ft | 496 kts | 4° |
| 2026-05-07 12:47 | 40.85335 | 4.45123 | 30212 ft | 498 kts | 4° |
| 2026-05-07 12:48 | 40.88751 | 4.45948 | 30427 ft | 500 kts | 4° |
| 2026-05-07 12:48 | 40.92177 | 4.46775 | 30637 ft | 502 kts | 4° |
| 2026-05-07 12:48 | 40.95616 | 4.47609 | 30846 ft | 503 kts | 4° |
| 2026-05-07 12:48 | 40.99067 | 4.48446 | 31045 ft | 505 kts | 4° |
| 2026-05-07 12:49 | 41.02520 | 4.49283 | 31312 ft | 504 kts | 4° |
| 2026-05-07 12:49 | 41.05967 | 4.50119 | 31603 ft | 503 kts | 4° |
| 2026-05-07 12:49 | 41.09410 | 4.50955 | 31884 ft | 503 kts | 4° |
| 2026-05-07 12:49 | 41.12848 | 4.51792 | 31987 ft | 498 kts | 4° |
| 2026-05-07 12:50 | 41.16208 | 4.52620 | 32010 ft | 486 kts | 4° |
| 2026-05-07 12:50 | 41.19518 | 4.53433 | 32008 ft | 482 kts | 4° |
| 2026-05-07 12:50 | 41.26095 | 4.55042 | 32014 ft | 480 kts | 4° |
| 2026-05-07 12:51 | 41.32658 | 4.56643 | 32005 ft | 479 kts | 4° |
| 2026-05-07 12:51 | 41.39212 | 4.58247 | 32011 ft | 479 kts | 4° |
| 2026-05-07 12:52 | 41.45764 | 4.59859 | 32013 ft | 479 kts | 4° |
| 2026-05-07 12:52 | 41.52310 | 4.61471 | 32025 ft | 478 kts | 4° |
| 2026-05-07 12:53 | 41.58854 | 4.63093 | 32027 ft | 478 kts | 4° |
| 2026-05-07 12:53 | 41.65391 | 4.64711 | 32019 ft | 477 kts | 4° |
| 2026-05-07 12:54 | 41.71774 | 4.67153 | 32021 ft | 488 kts | 20° |
| 2026-05-07 12:54 | 41.77487 | 4.72168 | 32029 ft | 496 kts | 40° |
| 2026-05-07 12:55 | 41.82428 | 4.78644 | 32030 ft | 497 kts | 43° |
| 2026-05-07 12:55 | 41.87346 | 4.85155 | 32027 ft | 496 kts | 43° |
| 2026-05-07 12:56 | 41.92249 | 4.91673 | 32032 ft | 496 kts | 43° |
| 2026-05-07 12:56 | 41.97154 | 4.98188 | 32030 ft | 496 kts | 42° |
| 2026-05-07 12:57 | 42.02055 | 5.04699 | 32028 ft | 495 kts | 42° |
| 2026-05-07 12:57 | 42.06944 | 5.11220 | 32031 ft | 495 kts | 43° |
| 2026-05-07 12:58 | 42.11817 | 5.17750 | 32036 ft | 494 kts | 43° |
| 2026-05-07 12:58 | 42.16680 | 5.24277 | 32036 ft | 493 kts | 43° |
| 2026-05-07 12:59 | 42.21533 | 5.30800 | 32041 ft | 492 kts | 43° |
| 2026-05-07 12:59 | 42.26374 | 5.37317 | 32035 ft | 491 kts | 43° |
| 2026-05-07 13:00 | 42.31203 | 5.43838 | 32037 ft | 490 kts | 43° |
| 2026-05-07 13:00 | 42.36019 | 5.50356 | 32038 ft | 490 kts | 43° |
| 2026-05-07 13:01 | 42.40826 | 5.56878 | 32034 ft | 489 kts | 43° |
| 2026-05-07 13:01 | 42.45623 | 5.63403 | 32028 ft | 489 kts | 43° |
| 2026-05-07 13:02 | 42.50411 | 5.69930 | 32033 ft | 488 kts | 43° |
| 2026-05-07 13:02 | 42.55188 | 5.76458 | 32034 ft | 487 kts | 43° |
| 2026-05-07 13:03 | 42.59929 | 5.82938 | 32035 ft | 487 kts | 43° |
| 2026-05-07 13:03 | 42.64684 | 5.89472 | 32028 ft | 486 kts | 43° |
| 2026-05-07 13:04 | 42.69432 | 5.96011 | 32026 ft | 486 kts | 43° |
| 2026-05-07 13:04 | 42.74179 | 6.02536 | 32022 ft | 485 kts | 43° |
| 2026-05-07 13:05 | 42.78918 | 6.09075 | 32023 ft | 485 kts | 43° |
| 2026-05-07 13:05 | 42.83636 | 6.15621 | 32020 ft | 484 kts | 43° |
| 2026-05-07 13:06 | 42.88609 | 6.21747 | 32022 ft | 481 kts | 37° |
| 2026-05-07 13:06 | 42.93735 | 6.27612 | 32020 ft | 481 kts | 37° |
| 2026-05-07 13:07 | 42.98849 | 6.33488 | 32020 ft | 480 kts | 37° |
| 2026-05-07 13:07 | 43.03957 | 6.39369 | 32018 ft | 480 kts | 37° |
| 2026-05-07 13:08 | 43.09054 | 6.45248 | 32018 ft | 479 kts | 37° |
| 2026-05-07 13:08 | 43.14145 | 6.51133 | 32005 ft | 479 kts | 37° |
| 2026-05-07 13:09 | 43.19227 | 6.57017 | 32004 ft | 478 kts | 37° |
| 2026-05-07 13:09 | 43.23805 | 6.63648 | 31996 ft | 482 kts | 52° |
| 2026-05-07 13:10 | 43.27737 | 6.71094 | 31996 ft | 482 kts | 52° |
| 2026-05-07 13:10 | 43.31662 | 6.78550 | 32002 ft | 482 kts | 52° |
| 2026-05-07 13:11 | 43.35563 | 6.85961 | 32011 ft | 482 kts | 52° |
| 2026-05-07 13:11 | 43.39487 | 6.93425 | 32017 ft | 482 kts | 52° |
| 2026-05-07 13:12 | 43.43406 | 7.00901 | 32023 ft | 482 kts | 52° |
| 2026-05-07 13:12 | 43.47316 | 7.08376 | 32022 ft | 481 kts | 52° |
| 2026-05-07 13:13 | 43.51214 | 7.15859 | 32019 ft | 481 kts | 53° |
| 2026-05-07 13:13 | 43.55105 | 7.23347 | 32023 ft | 480 kts | 53° |
| 2026-05-07 13:14 | 43.58985 | 7.30842 | 32019 ft | 480 kts | 52° |
| 2026-05-07 13:14 | 43.62868 | 7.38340 | 32022 ft | 480 kts | 52° |
| 2026-05-07 13:15 | 43.66746 | 7.45837 | 32017 ft | 480 kts | 52° |
| 2026-05-07 13:15 | 43.70608 | 7.53350 | 32004 ft | 480 kts | 53° |
| 2026-05-07 13:16 | 43.74460 | 7.60882 | 32002 ft | 480 kts | 53° |
| 2026-05-07 13:16 | 43.78314 | 7.68431 | 31999 ft | 480 kts | 52° |
| 2026-05-07 13:17 | 43.82417 | 7.75683 | 32001 ft | 476 kts | 41° |
| 2026-05-07 13:17 | 43.87491 | 7.81468 | 32007 ft | 472 kts | 33° |
| 2026-05-07 13:18 | 43.92687 | 7.87033 | 32006 ft | 472 kts | 33° |
| 2026-05-07 13:18 | 43.97662 | 7.93024 | 32017 ft | 475 kts | 40° |
| 2026-05-07 13:19 | 44.02399 | 7.99337 | 32009 ft | 475 kts | 40° |
| 2026-05-07 13:19 | 44.07172 | 8.05685 | 32013 ft | 475 kts | 40° |
| 2026-05-07 13:20 | 44.11943 | 8.12055 | 32019 ft | 476 kts | 40° |
| 2026-05-07 13:20 | 44.16713 | 8.18434 | 32020 ft | 475 kts | 40° |
| 2026-05-07 13:21 | 44.21474 | 8.24824 | 32015 ft | 476 kts | 40° |
| 2026-05-07 13:21 | 44.26240 | 8.31223 | 32009 ft | 476 kts | 40° |
| 2026-05-07 13:22 | 44.31002 | 8.37634 | 32002 ft | 476 kts | 40° |
| 2026-05-07 13:22 | 44.35757 | 8.44063 | 32015 ft | 476 kts | 40° |
| 2026-05-07 13:23 | 44.40513 | 8.50494 | 32026 ft | 476 kts | 40° |
| 2026-05-07 13:23 | 44.45265 | 8.56941 | 32034 ft | 476 kts | 40° |
| 2026-05-07 13:24 | 44.50014 | 8.63411 | 32035 ft | 476 kts | 40° |
| 2026-05-07 13:24 | 44.54760 | 8.69883 | 32032 ft | 476 kts | 40° |
| 2026-05-07 13:25 | 44.59502 | 8.76357 | 32030 ft | 476 kts | 40° |
| 2026-05-07 13:25 | 44.64237 | 8.82840 | 32023 ft | 475 kts | 40° |
| 2026-05-07 13:26 | 44.68966 | 8.89340 | 32012 ft | 476 kts | 40° |
| 2026-05-07 13:26 | 44.73678 | 8.95834 | 32000 ft | 476 kts | 40° |
| 2026-05-07 13:27 | 44.78420 | 9.02372 | 32002 ft | 476 kts | 40° |
| 2026-05-07 13:27 | 44.83113 | 9.08856 | 32000 ft | 476 kts | 39° |
| 2026-05-07 13:28 | 44.87066 | 9.14332 | 32000 ft | 476 kts | 40° |
| 2026-05-07 13:28 | 44.92545 | 9.21954 | 32003 ft | 476 kts | 39° |
| 2026-05-07 13:29 | 44.96486 | 9.27453 | 31998 ft | 475 kts | 39° |
| 2026-05-07 13:29 | 45.01191 | 9.34016 | 32000 ft | 476 kts | 40° |
| 2026-05-07 13:30 | 45.05896 | 9.40598 | 32001 ft | 476 kts | 40° |
| 2026-05-07 13:30 | 45.10595 | 9.47196 | 32006 ft | 476 kts | 40° |
| 2026-05-07 13:31 | 45.15286 | 9.53799 | 32002 ft | 475 kts | 40° |
| 2026-05-07 13:31 | 45.19969 | 9.60406 | 32002 ft | 475 kts | 40° |
| 2026-05-07 13:32 | 45.24614 | 9.66972 | 32014 ft | 474 kts | 40° |
| 2026-05-07 13:32 | 45.29290 | 9.73585 | 32016 ft | 474 kts | 40° |
| 2026-05-07 13:33 | 45.33956 | 9.80209 | 32019 ft | 474 kts | 40° |
| 2026-05-07 13:33 | 45.38614 | 9.86854 | 31998 ft | 474 kts | 40° |
| 2026-05-07 13:34 | 45.45587 | 9.96819 | 31997 ft | 473 kts | 40° |
| 2026-05-07 13:35 | 45.50208 | 10.03494 | 32001 ft | 473 kts | 41° |
| 2026-05-07 13:35 | 45.54743 | 10.10294 | 31998 ft | 473 kts | 42° |
| 2026-05-07 13:36 | 45.59243 | 10.17145 | 31998 ft | 473 kts | 42° |
| 2026-05-07 13:36 | 45.63757 | 10.23983 | 31999 ft | 473 kts | 42° |
| 2026-05-07 13:37 | 45.68278 | 10.30800 | 31997 ft | 472 kts | 43° |
| 2026-05-07 13:37 | 45.72788 | 10.37615 | 32000 ft | 471 kts | 42° |
| 2026-05-07 13:38 | 45.77287 | 10.44439 | 32002 ft | 471 kts | 43° |
| 2026-05-07 13:38 | 45.81771 | 10.51268 | 31995 ft | 470 kts | 43° |
| 2026-05-07 13:39 | 45.86243 | 10.58085 | 32002 ft | 470 kts | 43° |
| 2026-05-07 13:39 | 45.90716 | 10.64929 | 32001 ft | 469 kts | 43° |
| 2026-05-07 13:40 | 45.95697 | 10.70771 | 32007 ft | 458 kts | 26° |
| 2026-05-07 13:40 | 46.01284 | 10.75074 | 32001 ft | 455 kts | 23° |
| 2026-05-07 13:41 | 46.06863 | 10.79359 | 32013 ft | 454 kts | 24° |
| 2026-05-07 13:41 | 46.12427 | 10.83657 | 32040 ft | 454 kts | 24° |
| 2026-05-07 13:42 | 46.17984 | 10.87951 | 32063 ft | 453 kts | 24° |
| 2026-05-07 13:42 | 46.23527 | 10.92240 | 32082 ft | 451 kts | 24° |
| 2026-05-07 13:43 | 46.29062 | 10.96527 | 32100 ft | 451 kts | 25° |
| 2026-05-07 13:43 | 46.34590 | 11.00837 | 32108 ft | 451 kts | 25° |
| 2026-05-07 13:44 | 46.40160 | 11.04805 | 32109 ft | 446 kts | 15° |
| 2026-05-07 13:44 | 46.46209 | 11.06471 | 32082 ft | 436 kts | 357° |
| 2026-05-07 13:45 | 46.52259 | 11.06480 | 31979 ft | 435 kts | 356° |
| 2026-05-07 13:45 | 46.58313 | 11.06488 | 31979 ft | 435 kts | 356° |
| 2026-05-07 13:46 | 46.64322 | 11.06459 | 31981 ft | 434 kts | 353° |
| 2026-05-07 13:46 | 46.70289 | 11.05440 | 31985 ft | 432 kts | 349° |
| 2026-05-07 13:47 | 46.76244 | 11.04331 | 31991 ft | 432 kts | 349° |
| 2026-05-07 13:47 | 46.82198 | 11.03202 | 31989 ft | 431 kts | 349° |
| 2026-05-07 13:48 | 46.88150 | 11.02071 | 31996 ft | 432 kts | 349° |
| 2026-05-07 13:48 | 46.94130 | 11.01055 | 31982 ft | 438 kts | 355° |
| 2026-05-07 13:48 | 46.97210 | 11.01262 | 31984 ft | 449 kts | 3° |
| 2026-05-07 13:49 | 47.00341 | 11.01742 | 31852 ft | 453 kts | 3° |
| 2026-05-07 13:49 | 47.03467 | 11.02222 | 31332 ft | 449 kts | 4° |
| 2026-05-07 13:49 | 47.06560 | 11.02700 | 30837 ft | 444 kts | 4° |
| 2026-05-07 13:49 | 47.09619 | 11.03172 | 30344 ft | 440 kts | 4° |
| 2026-05-07 13:50 | 47.12645 | 11.03634 | 29827 ft | 435 kts | 4° |
| 2026-05-07 13:50 | 47.15636 | 11.04087 | 29249 ft | 430 kts | 4° |
| 2026-05-07 13:50 | 47.18576 | 11.04527 | 28677 ft | 419 kts | 4° |
| 2026-05-07 13:50 | 47.21434 | 11.04956 | 28119 ft | 407 kts | 4° |
| 2026-05-07 13:51 | 47.24211 | 11.05374 | 27579 ft | 397 kts | 4° |
| 2026-05-07 13:51 | 47.26947 | 11.05787 | 27050 ft | 394 kts | 4° |
| 2026-05-07 13:51 | 47.29545 | 11.06181 | 26548 ft | 391 kts | 4° |
| 2026-05-07 13:51 | 47.32241 | 11.06593 | 26030 ft | 388 kts | 4° |
| 2026-05-07 13:52 | 47.34915 | 11.07006 | 25562 ft | 384 kts | 4° |
| 2026-05-07 13:52 | 47.37559 | 11.07414 | 25168 ft | 379 kts | 4° |
| 2026-05-07 13:52 | 47.40166 | 11.07819 | 24773 ft | 374 kts | 4° |
| 2026-05-07 13:52 | 47.42748 | 11.08220 | 24339 ft | 371 kts | 4° |
| 2026-05-07 13:53 | 47.45304 | 11.08616 | 23906 ft | 368 kts | 4° |
| 2026-05-07 13:53 | 47.47839 | 11.09008 | 23473 ft | 365 kts | 4° |
| 2026-05-07 13:53 | 47.50351 | 11.09396 | 22974 ft | 361 kts | 4° |
| 2026-05-07 13:53 | 47.52839 | 11.09779 | 22487 ft | 358 kts | 4° |
| 2026-05-07 13:54 | 47.55279 | 11.10258 | 22166 ft | 351 kts | 10° |
| 2026-05-07 13:54 | 47.57598 | 11.11349 | 21759 ft | 350 kts | 21° |
| 2026-05-07 13:54 | 47.59736 | 11.13041 | 21371 ft | 347 kts | 28° |
| 2026-05-07 13:54 | 47.61803 | 11.14839 | 20976 ft | 343 kts | 28° |
| 2026-05-07 13:55 | 47.63853 | 11.16616 | 20579 ft | 340 kts | 28° |
| 2026-05-07 13:55 | 47.65887 | 11.18379 | 20190 ft | 337 kts | 28° |
| 2026-05-07 13:55 | 47.67904 | 11.20128 | 19811 ft | 334 kts | 28° |
| 2026-05-07 13:55 | 47.69902 | 11.21859 | 19413 ft | 331 kts | 28° |
| 2026-05-07 13:56 | 47.71882 | 11.23575 | 19034 ft | 329 kts | 27° |
| 2026-05-07 13:56 | 47.73880 | 11.25186 | 18657 ft | 324 kts | 20° |
| 2026-05-07 13:56 | 47.75966 | 11.26376 | 18294 ft | 320 kts | 17° |
| 2026-05-07 13:56 | 47.78048 | 11.27521 | 17898 ft | 317 kts | 17° |
| 2026-05-07 13:57 | 47.80106 | 11.28661 | 17523 ft | 314 kts | 17° |
| 2026-05-07 13:57 | 47.82145 | 11.29797 | 17179 ft | 312 kts | 17° |
| 2026-05-07 13:57 | 47.84176 | 11.30929 | 16822 ft | 311 kts | 17° |
| 2026-05-07 13:57 | 47.86195 | 11.32057 | 16467 ft | 309 kts | 17° |
| 2026-05-07 13:58 | 47.88218 | 11.33092 | 16110 ft | 306 kts | 10° |
| 2026-05-07 13:58 | 47.90296 | 11.33597 | 15756 ft | 300 kts | 360° |
| 2026-05-07 13:58 | 47.92379 | 11.33774 | 15415 ft | 299 kts | 1° |
| 2026-05-07 13:58 | 47.94398 | 11.34486 | 15335 ft | 304 kts | 22° |
| 2026-05-07 13:59 | 47.96140 | 11.36308 | 15206 ft | 311 kts | 46° |
| 2026-05-07 13:59 | 47.97454 | 11.38980 | 15030 ft | 329 kts | 54° |
| 2026-05-07 13:59 | 47.98750 | 11.41839 | 15025 ft | 335 kts | 54° |
| 2026-05-07 13:59 | 48.00056 | 11.44733 | 15026 ft | 336 kts | 54° |
| 2026-05-07 14:00 | 48.01334 | 11.47569 | 15023 ft | 320 kts | 54° |
| 2026-05-07 14:00 | 48.02548 | 11.50257 | 15022 ft | 304 kts | 54° |
| 2026-05-07 14:00 | 48.03704 | 11.52811 | 15021 ft | 292 kts | 54° |
| 2026-05-07 14:00 | 48.04837 | 11.55310 | 15024 ft | 290 kts | 54° |
| 2026-05-07 14:01 | 48.05971 | 11.57807 | 15024 ft | 290 kts | 54° |
| 2026-05-07 14:01 | 48.07121 | 11.60333 | 15020 ft | 305 kts | 54° |
| 2026-05-07 14:01 | 48.08369 | 11.63070 | 15024 ft | 331 kts | 54° |
| 2026-05-07 14:01 | 48.09685 | 11.65967 | 14972 ft | 341 kts | 54° |
| 2026-05-07 14:02 | 48.11017 | 11.68917 | 14650 ft | 342 kts | 54° |
| 2026-05-07 14:02 | 48.12339 | 11.71856 | 14287 ft | 340 kts | 54° |
| 2026-05-07 14:02 | 48.13654 | 11.74783 | 13876 ft | 338 kts | 54° |
| 2026-05-07 14:02 | 48.14959 | 11.77693 | 13428 ft | 336 kts | 54° |
| 2026-05-07 14:03 | 48.16257 | 11.80587 | 12970 ft | 334 kts | 54° |
| 2026-05-07 14:03 | 48.17547 | 11.83463 | 12525 ft | 332 kts | 54° |
| 2026-05-07 14:03 | 48.18833 | 11.86328 | 12057 ft | 331 kts | 54° |
| 2026-05-07 14:03 | 48.20113 | 11.89187 | 11602 ft | 330 kts | 54° |
| 2026-05-07 14:04 | 48.21389 | 11.92039 | 11146 ft | 329 kts | 54° |
| 2026-05-07 14:04 | 48.22661 | 11.94882 | 10706 ft | 328 kts | 54° |
| 2026-05-07 14:04 | 48.23923 | 11.97705 | 10318 ft | 321 kts | 54° |
| 2026-05-07 14:04 | 48.25129 | 12.00409 | 9958 ft | 305 kts | 54° |
| 2026-05-07 14:05 | 48.26281 | 12.02994 | 9564 ft | 293 kts | 54° |
| 2026-05-07 14:05 | 48.27266 | 12.05677 | 9113 ft | 297 kts | 66° |
| 2026-05-07 14:05 | 48.27871 | 12.08645 | 8637 ft | 299 kts | 79° |
| 2026-05-07 14:05 | 48.28120 | 12.11742 | 8244 ft | 298 kts | 84° |
| 2026-05-07 14:06 | 48.28344 | 12.14831 | 7858 ft | 297 kts | 81° |
| 2026-05-07 14:06 | 48.29012 | 12.17717 | 7476 ft | 292 kts | 55° |
| 2026-05-07 14:06 | 48.30418 | 12.19823 | 7101 ft | 284 kts | 27° |
| 2026-05-07 14:06 | 48.32247 | 12.20726 | 6736 ft | 274 kts | 360° |
| 2026-05-07 14:07 | 48.34079 | 12.20265 | 6368 ft | 265 kts | 332° |
| 2026-05-07 14:07 | 48.35494 | 12.18601 | 5983 ft | 258 kts | 305° |
| 2026-05-07 14:07 | 48.36266 | 12.16235 | 5591 ft | 249 kts | 282° |
| 2026-05-07 14:07 | 48.36405 | 12.13691 | 5210 ft | 241 kts | 271° |
| 2026-05-07 14:08 | 48.36447 | 12.11245 | 4839 ft | 234 kts | 271° |
| 2026-05-07 14:08 | 48.36490 | 12.08815 | 4450 ft | 232 kts | 271° |
| 2026-05-07 14:08 | 48.36419 | 12.06405 | 4081 ft | 230 kts | 266° |
| 2026-05-07 14:08 | 48.36258 | 12.04082 | 3999 ft | 214 kts | 264° |
| 2026-05-07 14:09 | 48.36097 | 12.01952 | 3996 ft | 197 kts | 264° |
| 2026-05-07 14:09 | 48.35948 | 11.99965 | 4002 ft | 188 kts | 265° |
| 2026-05-07 14:09 | 48.35804 | 11.98031 | 3908 ft | 185 kts | 264° |
| 2026-05-07 14:09 | 48.35664 | 11.96160 | 3626 ft | 174 kts | 264° |
| 2026-05-07 14:10 | 48.35533 | 11.94420 | 3388 ft | 161 kts | 265° |
| 2026-05-07 14:10 | 48.35411 | 11.92793 | 3191 ft | 154 kts | 265° |
| 2026-05-07 14:10 | 48.35291 | 11.91190 | 2974 ft | 156 kts | 266° |
| 2026-05-07 14:10 | 48.35169 | 11.89585 | 2760 ft | 153 kts | 265° |
| 2026-05-07 14:11 | 48.35051 | 11.88023 | 2560 ft | 149 kts | 266° |
| 2026-05-07 14:11 | 48.34937 | 11.86489 | 2315 ft | 146 kts | 266° |
| 2026-05-07 14:11 | 48.34823 | 11.84964 | 2084 ft | 149 kts | 266° |
| 2026-05-07 14:11 | 48.34691 | 11.83408 | 1887 ft | 152 kts | 267° |
| 2026-05-07 14:12 | 48.34580 | 11.81814 | 1716 ft | 155 kts | 267° |
| 2026-05-07 14:12 | 48.34454 | 11.80194 | 1525 ft | 156 kts | 268° |
| 2026-05-07 14:12 | 48.34332 | 11.78604 | 1557 ft | 159 kts | 267° |
| 2026-05-07 14:12 | 48.34201 | 11.76898 | 2251 ft | 166 kts | 266° |
| 2026-05-07 14:13 | 48.34119 | 11.75749 | 2807 ft | 169 kts | 266° |
| 2026-05-07 14:13 | 48.34003 | 11.73915 | 3552 ft | 185 kts | 267° |
| 2026-05-07 14:13 | 48.33896 | 11.71946 | 4380 ft | 189 kts | 266° |
| 2026-05-07 14:13 | 48.33519 | 11.69999 | 4696 ft | 210 kts | 237° |
| 2026-05-07 14:14 | 48.32245 | 11.68780 | 4930 ft | 231 kts | 196° |
| 2026-05-07 14:14 | 48.30643 | 11.69073 | 4998 ft | 240 kts | 156° |
| 2026-05-07 14:14 | 48.29214 | 11.70412 | 5015 ft | 243 kts | 147° |
| 2026-05-07 14:14 | 48.27852 | 11.71918 | 5010 ft | 244 kts | 146° |
| 2026-05-07 14:15 | 48.26486 | 11.73427 | 5013 ft | 244 kts | 147° |
| 2026-05-07 14:15 | 48.25111 | 11.74911 | 5001 ft | 243 kts | 148° |
| 2026-05-07 14:15 | 48.23702 | 11.76322 | 5008 ft | 246 kts | 150° |
| 2026-05-07 14:15 | 48.22252 | 11.77702 | 5011 ft | 247 kts | 150° |
| 2026-05-07 14:16 | 48.20816 | 11.79052 | 5003 ft | 247 kts | 149° |
| 2026-05-07 14:16 | 48.19588 | 11.80845 | 5008 ft | 251 kts | 121° |
| 2026-05-07 14:16 | 48.19147 | 11.83347 | 5003 ft | 251 kts | 86° |
| 2026-05-07 14:16 | 48.19642 | 11.85803 | 5014 ft | 247 kts | 58° |
| 2026-05-07 14:17 | 48.20517 | 11.88017 | 5008 ft | 246 kts | 56° |
| 2026-05-07 14:17 | 48.21395 | 11.90225 | 5006 ft | 248 kts | 57° |
| 2026-05-07 14:17 | 48.22295 | 11.92489 | 5002 ft | 255 kts | 57° |
| 2026-05-07 14:17 | 48.23204 | 11.94786 | 4998 ft | 256 kts | 57° |
| 2026-05-07 14:18 | 48.24111 | 11.97091 | 5005 ft | 258 kts | 57° |
| 2026-05-07 14:18 | 48.25021 | 11.99413 | 4997 ft | 258 kts | 57° |
| 2026-05-07 14:18 | 48.25931 | 12.01738 | 5007 ft | 258 kts | 57° |
| 2026-05-07 14:18 | 48.26841 | 12.04064 | 5003 ft | 259 kts | 58° |
| 2026-05-07 14:19 | 48.27750 | 12.06393 | 5000 ft | 259 kts | 58° |
| 2026-05-07 14:19 | 48.28659 | 12.08727 | 5010 ft | 259 kts | 57° |
| 2026-05-07 14:19 | 48.29569 | 12.11063 | 5003 ft | 259 kts | 57° |
| 2026-05-07 14:19 | 48.30473 | 12.13387 | 4998 ft | 252 kts | 58° |
| 2026-05-07 14:20 | 48.31330 | 12.15594 | 4996 ft | 241 kts | 57° |
| 2026-05-07 14:20 | 48.32302 | 12.17601 | 5000 ft | 234 kts | 35° |
| 2026-05-07 14:20 | 48.33737 | 12.18427 | 5008 ft | 215 kts | 358° |
| 2026-05-07 14:20 | 48.35121 | 12.17860 | 5013 ft | 206 kts | 324° |
| 2026-05-07 14:21 | 48.36102 | 12.16345 | 5006 ft | 202 kts | 304° |
| 2026-05-07 14:21 | 48.36690 | 12.14452 | 5008 ft | 200 kts | 283° |
| 2026-05-07 14:21 | 48.36796 | 12.12376 | 5002 ft | 197 kts | 269° |
| 2026-05-07 14:21 | 48.36704 | 12.10364 | 5009 ft | 190 kts | 265° |
| 2026-05-07 14:22 | 48.36571 | 12.08408 | 5000 ft | 184 kts | 265° |
| 2026-05-07 14:22 | 48.36434 | 12.06522 | 4901 ft | 181 kts | 265° |
| 2026-05-07 14:22 | 48.36297 | 12.04658 | 4704 ft | 178 kts | 264° |
| 2026-05-07 14:22 | 48.36163 | 12.02852 | 4470 ft | 174 kts | 264° |
| 2026-05-07 14:23 | 48.36030 | 12.01058 | 4244 ft | 171 kts | 264° |
| 2026-05-07 14:23 | 48.35899 | 11.99299 | 4023 ft | 169 kts | 265° |
| 2026-05-07 14:23 | 48.35769 | 11.97556 | 3791 ft | 167 kts | 265° |
| 2026-05-07 14:23 | 48.35640 | 11.95835 | 3567 ft | 164 kts | 265° |
| 2026-05-07 14:24 | 48.35514 | 11.94159 | 3356 ft | 159 kts | 266° |
| 2026-05-07 14:24 | 48.35391 | 11.92519 | 3147 ft | 157 kts | 265° |
| 2026-05-07 14:24 | 48.35267 | 11.90869 | 2932 ft | 161 kts | 266° |
| 2026-05-07 14:24 | 48.35141 | 11.89209 | 2717 ft | 159 kts | 265° |
| 2026-05-07 14:25 | 48.35017 | 11.87576 | 2497 ft | 156 kts | 266° |
| 2026-05-07 14:25 | 48.34899 | 11.85983 | 2270 ft | 152 kts | 266° |
| 2026-05-07 14:25 | 48.34766 | 11.84391 | 2039 ft | 155 kts | 266° |
| 2026-05-07 14:25 | 48.34665 | 11.82781 | 1836 ft | 156 kts | 270° |
| 2026-05-07 14:26 | 48.34522 | 11.81148 | 1630 ft | 158 kts | 268° |
| 2026-05-07 14:26 | 48.34409 | 11.79539 | 1483 ft | 148 kts | 268° |
| 2026-05-07 14:26 | 48.34305 | 11.78191 | 1475 ft | 108 kts | 263° |
| 2026-05-07 14:26 | 48.34244 | 11.77362 | 1485 ft | 38 kts | 265° |
| 2026-05-07 14:27 | 48.34307 | 11.77079 | 1480 ft | 22 kts | 295° |
| 2026-05-07 14:27 | 48.34363 | 11.76888 | 1477 ft | 12 kts | 294° |
| 2026-05-07 14:27 | 48.34384 | 11.76816 | 1481 ft | 0 kts | 293° |
| 2026-05-07 14:27 | 48.34385 | 11.76814 | 1482 ft | 1 kts | 293° |
| 2026-05-07 14:28 | 48.34391 | 11.76793 | 1483 ft | 3 kts | 294° |
| 2026-05-07 14:28 | 48.34421 | 11.76731 | 1481 ft | 12 kts | 317° |
| 2026-05-07 14:28 | 48.34506 | 11.76694 | 1475 ft | 14 kts | 353° |
| 2026-05-07 14:28 | 48.34572 | 11.76741 | 1485 ft | 10 kts | 73° |
| 2026-05-07 14:29 | 48.34584 | 11.76853 | 1477 ft | 12 kts | 83° |
| 2026-05-07 14:29 | 48.34594 | 11.76984 | 1485 ft | 14 kts | 84° |
| 2026-05-07 14:29 | 48.34606 | 11.77133 | 1485 ft | 15 kts | 83° |
| 2026-05-07 14:29 | 48.34618 | 11.77298 | 1485 ft | 17 kts | 83° |
| 2026-05-07 14:30 | 48.34631 | 11.77473 | 1481 ft | 17 kts | 83° |
| 2026-05-07 14:30 | 48.34644 | 11.77642 | 1485 ft | 13 kts | 83° |
| 2026-05-07 14:30 | 48.34656 | 11.77792 | 1482 ft | 16 kts | 84° |
| 2026-05-07 14:30 | 48.34669 | 11.77976 | 1485 ft | 20 kts | 83° |
| 2026-05-07 14:31 | 48.34686 | 11.78194 | 1483 ft | 22 kts | 83° |
| 2026-05-07 14:31 | 48.34704 | 11.78426 | 1482 ft | 23 kts | 83° |
| 2026-05-07 14:31 | 48.34723 | 11.78664 | 1485 ft | 22 kts | 83° |
| 2026-05-07 14:31 | 48.34736 | 11.78833 | 1479 ft | 16 kts | 84° |
| 2026-05-07 14:32 | 48.34750 | 11.79009 | 1485 ft | 18 kts | 82° |
| 2026-05-07 14:32 | 48.34766 | 11.79203 | 1485 ft | 20 kts | 84° |
| 2026-05-07 14:32 | 48.34780 | 11.79408 | 1485 ft | 19 kts | 84° |
| 2026-05-07 14:32 | 48.34828 | 11.79554 | 1480 ft | 16 kts | 13° |
| 2026-05-07 14:33 | 48.34941 | 11.79542 | 1485 ft | 15 kts | 354° |
| 2026-05-07 14:33 | 48.35036 | 11.79527 | 1476 ft | 11 kts | 354° |
| 2026-05-07 14:33 | 48.35063 | 11.79451 | 1483 ft | 10 kts | 263° |
| 2026-05-07 14:33 | 48.35058 | 11.79384 | 1476 ft | 0 kts | 264° |